Time;durP1;ratioP1;P1;durP2;ratioP2;P2;SDS_P1;SDS_P2;PMS_P1;PMS_P2;Temp;Humidity;BMP_temperature;BMP_pressure;BME280_temperature;BME280_humidity;BME280_pressure;Samples;Min_cycle;Max_cycle;Signal;HPM_P1;HPM_P2
2021/05/30 00:00:47;;;;;;;5.97;4.15;;;11.50;78.00;;;;;;2072325;28;20049;-85
2021/05/30 00:01:48;;;;;;;7.88;4.72;;;11.50;78.10;;;;;;2071340;28;20037;-85
2021/05/30 00:02:48;;;;;;;6.85;4.80;;;11.50;78.10;;;;;;2079519;28;20484;-85
2021/05/30 00:03:49;;;;;;;7.20;4.50;;;11.50;78.20;;;;;;2067720;28;20035;-84
2021/05/30 00:04:50;;;;;;;6.68;4.95;;;11.50;78.20;;;;;;2061594;28;20526;-84
2021/05/30 00:05:50;;;;;;;8.27;4.93;;;11.40;78.20;;;;;;2061777;28;20104;-84
2021/05/30 00:06:51;;;;;;;5.50;4.18;;;11.40;78.30;;;;;;2071996;28;20030;-86
2021/05/30 00:07:56;;;;;;;8.10;5.00;;;11.40;78.30;;;;;;2071893;28;20416;-85
2021/05/30 00:08:57;;;;;;;8.63;5.28;;;11.30;78.30;;;;;;2071188;28;20037;-85
2021/05/30 00:09:57;;;;;;;7.05;4.63;;;11.30;78.30;;;;;;2068642;28;20443;-86
2021/05/30 00:10:58;;;;;;;6.93;4.50;;;11.30;78.40;;;;;;2067691;28;20432;-86
2021/05/30 00:11:59;;;;;;;5.90;4.38;;;11.30;78.40;;;;;;2064731;28;20440;-86
2021/05/30 00:13:00;;;;;;;7.70;4.70;;;11.30;78.40;;;;;;2064822;28;20115;-86
2021/05/30 00:14:04;;;;;;;7.90;5.05;;;11.20;78.40;;;;;;2077866;28;20400;-86
2021/05/30 00:15:08;;;;;;;7.07;4.65;;;11.20;78.40;;;;;;2079440;28;20029;-86
2021/05/30 00:16:09;;;;;;;6.22;4.63;;;11.20;78.50;;;;;;2076961;28;20097;-85
2021/05/30 00:17:10;;;;;;;7.03;4.38;;;11.20;78.50;;;;;;2073187;28;20084;-86
2021/05/30 00:18:12;;;;;;;6.95;4.93;;;11.10;78.50;;;;;;2072898;28;20016;-86
2021/05/30 00:19:12;;;;;;;7.15;4.70;;;11.10;78.50;;;;;;2073366;28;20045;-85
2021/05/30 00:20:13;;;;;;;7.15;4.88;;;11.10;78.60;;;;;;2065183;28;20527;-86
2021/05/30 00:21:14;;;;;;;7.20;4.88;;;11.10;78.70;;;;;;2071194;28;20038;-86
2021/05/30 00:22:15;;;;;;;7.28;4.85;;;11.00;78.70;;;;;;2070334;28;20025;-85
2021/05/30 00:23:16;;;;;;;7.45;5.05;;;11.00;78.70;;;;;;2069529;28;20124;-85
2021/05/30 00:24:16;;;;;;;7.97;5.22;;;11.00;78.60;;;;;;2064678;28;20030;-86
2021/05/30 00:25:17;;;;;;;6.68;5.13;;;11.10;78.70;;;;;;2068732;28;20400;-86
2021/05/30 00:26:18;;;;;;;7.60;5.05;;;11.00;78.70;;;;;;2070431;28;20053;-85
2021/05/30 00:27:18;;;;;;;7.90;5.22;;;11.00;78.80;;;;;;2070743;28;20038;-85
2021/05/30 00:28:19;;;;;;;6.57;4.70;;;10.90;78.70;;;;;;2071987;28;20041;-85
2021/05/30 00:29:20;;;;;;;6.30;4.68;;;10.90;78.80;;;;;;2064829;28;20384;-85
2021/05/30 00:30:21;;;;;;;6.72;4.72;;;10.90;78.90;;;;;;2074616;28;20022;-84
2021/05/30 00:31:22;;;;;;;6.78;4.45;;;10.90;78.90;;;;;;2073543;28;20546;-83
2021/05/30 00:32:22;;;;;;;5.88;4.45;;;10.90;79.00;;;;;;2076587;28;20038;-85
2021/05/30 00:33:23;;;;;;;6.85;4.15;;;10.90;79.00;;;;;;2075847;28;20153;-85
2021/05/30 00:34:24;;;;;;;6.00;4.30;;;10.90;78.90;;;;;;2064604;28;20035;-85
2021/05/30 00:35:25;;;;;;;6.30;4.25;;;10.90;78.80;;;;;;2056038;28;20023;-84
2021/05/30 00:36:26;;;;;;;6.05;4.30;;;10.90;78.90;;;;;;2062441;28;20046;-86
2021/05/30 00:37:26;;;;;;;6.25;4.10;;;10.90;78.80;;;;;;2072452;28;20022;-85
2021/05/30 00:38:27;;;;;;;6.05;4.35;;;10.90;78.80;;;;;;2070820;28;20037;-85
2021/05/30 00:39:27;;;;;;;5.43;4.00;;;10.90;78.80;;;;;;2063598;28;20036;-86
2021/05/30 00:40:28;;;;;;;5.78;4.13;;;10.90;78.80;;;;;;2060269;28;20366;-85
2021/05/30 00:41:29;;;;;;;6.00;4.25;;;11.00;78.80;;;;;;2051806;28;20023;-84
2021/05/30 00:42:29;;;;;;;6.65;4.80;;;11.00;78.80;;;;;;2064507;28;20027;-86
2021/05/30 00:43:30;;;;;;;6.97;4.40;;;10.90;78.80;;;;;;2080215;28;20617;-86
2021/05/30 00:44:31;;;;;;;5.55;4.20;;;11.00;78.80;;;;;;2085456;28;20581;-86
2021/05/30 00:45:32;;;;;;;6.20;4.38;;;11.00;78.80;;;;;;2072167;28;20026;-85
2021/05/30 00:46:32;;;;;;;6.22;4.40;;;10.90;78.70;;;;;;2064215;28;20038;-86
2021/05/30 00:47:33;;;;;;;6.03;4.28;;;11.00;78.70;;;;;;2073655;28;20025;-84
2021/05/30 00:48:34;;;;;;;6.75;4.45;;;11.00;78.80;;;;;;2071990;28;20057;-85
2021/05/30 00:49:35;;;;;;;7.03;4.55;;;11.00;78.70;;;;;;2056429;28;20523;-85
2021/05/30 00:50:35;;;;;;;5.93;4.10;;;11.00;78.70;;;;;;2062090;28;20042;-85
2021/05/30 00:51:36;;;;;;;6.50;4.15;;;10.90;78.70;;;;;;2059699;28;20559;-85
2021/05/30 00:52:40;;;;;;;5.97;4.10;;;10.90;78.80;;;;;;2055824;28;20039;-85
2021/05/30 00:53:42;;;;;;;5.78;4.25;;;11.00;78.80;;;;;;2063800;28;20026;-85
2021/05/30 00:54:43;;;;;;;6.80;4.53;;;10.90;78.80;;;;;;2069316;28;20115;-85
2021/05/30 00:55:45;;;;;;;5.97;4.00;;;10.90;78.80;;;;;;2053426;28;20027;-85
2021/05/30 00:56:46;;;;;;;5.60;4.00;;;10.90;78.80;;;;;;2070390;28;20033;-86
2021/05/30 00:57:46;;;;;;;6.85;4.80;;;10.90;78.90;;;;;;2079657;28;20021;-86
2021/05/30 00:58:47;;;;;;;7.25;4.90;;;10.80;78.80;;;;;;2068827;28;20125;-85
2021/05/30 00:59:49;;;;;;;6.97;4.63;;;10.80;78.90;;;;;;2065900;28;20433;-85
2021/05/30 01:00:49;;;;;;;6.47;4.72;;;10.80;78.90;;;;;;2064928;28;20026;-85
2021/05/30 01:01:50;;;;;;;6.60;4.57;;;10.80;79.00;;;;;;2079118;28;20026;-86
2021/05/30 01:02:51;;;;;;;6.25;4.43;;;10.80;79.10;;;;;;2072872;28;20018;-85
2021/05/30 01:03:51;;;;;;;5.35;4.20;;;10.80;79.10;;;;;;2069513;28;20070;-85
2021/05/30 01:04:52;;;;;;;5.32;4.00;;;10.70;79.00;;;;;;2080425;28;20114;-85
2021/05/30 01:05:54;;;;;;;5.85;4.07;;;10.80;79.70;;;;;;2059921;28;20065;-86
2021/05/30 01:06:56;;;;;;;7.05;5.00;;;10.80;79.10;;;;;;2058783;28;20114;-86
2021/05/30 01:07:57;;;;;;;6.03;4.10;;;10.70;79.00;;;;;;2065250;28;20080;-84
2021/05/30 01:09:00;;;;;;;5.97;4.20;;;10.70;79.00;;;;;;2067189;28;20535;-85
2021/05/30 01:10:29;;;;;;;6.32;4.47;;;10.70;79.00;;;;;;2071860;28;20440;-85
2021/05/30 01:11:30;;;;;;;6.15;4.28;;;10.70;79.00;;;;;;2078386;28;20080;-86
2021/05/30 01:12:31;;;;;;;5.70;4.20;;;10.70;79.00;;;;;;2063892;28;20033;-86
2021/05/30 01:13:34;;;;;;;7.30;4.40;;;10.70;79.00;;;;;;2045790;28;20040;-86
2021/05/30 01:14:36;;;;;;;6.80;4.38;;;10.70;79.00;;;;;;2052495;28;20504;-87
2021/05/30 01:15:36;;;;;;;6.47;4.70;;;10.70;79.10;;;;;;2063133;28;20035;-86
2021/05/30 01:16:38;;;;;;;8.27;4.55;;;10.70;79.10;;;;;;2057833;28;20033;-86
2021/05/30 01:17:39;;;;;;;6.35;4.85;;;10.70;79.20;;;;;;2060747;28;20073;-86
2021/05/30 01:18:40;;;;;;;7.45;4.88;;;10.60;79.20;;;;;;2072616;28;20124;-86
2021/05/30 01:19:44;;;;;;;5.68;4.13;;;10.60;79.20;;;;;;2070815;28;20022;-86
2021/05/30 01:20:44;;;;;;;6.50;4.53;;;10.60;79.20;;;;;;2078397;28;20069;-86
2021/05/30 01:21:46;;;;;;;6.00;4.70;;;10.60;79.30;;;;;;2073793;28;20120;-85
2021/05/30 01:22:48;;;;;;;8.20;4.40;;;10.60;79.30;;;;;;2075252;28;20102;-86
2021/05/30 01:23:53;;;;;;;6.75;4.70;;;10.50;79.20;;;;;;2063006;28;20031;-85
2021/05/30 01:24:54;;;;;;;7.15;4.80;;;10.50;79.30;;;;;;2075261;28;20025;-86
2021/05/30 01:25:54;;;;;;;6.35;4.53;;;10.50;79.30;;;;;;2080998;28;20041;-86
2021/05/30 01:26:55;;;;;;;6.43;4.45;;;10.50;80.00;;;;;;2083302;28;20027;-84
2021/05/30 01:27:56;;;;;;;8.50;5.28;;;10.40;79.40;;;;;;2067296;28;20114;-86
2021/05/30 01:28:56;;;;;;;6.78;4.68;;;10.50;79.50;;;;;;2070781;28;20034;-85
2021/05/30 01:29:57;;;;;;;7.85;4.90;;;10.40;79.40;;;;;;2062946;28;20493;-86
2021/05/30 01:30:58;;;;;;;6.78;5.10;;;10.40;79.40;;;;;;2058449;28;20034;-85
2021/05/30 01:31:58;;;;;;;7.90;4.88;;;10.40;79.40;;;;;;2052517;28;20090;-86
2021/05/30 01:32:59;;;;;;;9.20;5.40;;;10.40;79.40;;;;;;2060201;28;20134;-85
2021/05/30 01:34:00;;;;;;;7.18;5.13;;;10.40;79.40;;;;;;2072956;28;20033;-85
2021/05/30 01:35:01;;;;;;;6.10;4.50;;;10.40;79.40;;;;;;2073266;28;20037;-86
2021/05/30 01:36:02;;;;;;;5.88;4.68;;;10.40;79.50;;;;;;2073958;28;20029;-87
2021/05/30 01:37:03;;;;;;;6.82;4.55;;;10.40;79.50;;;;;;2074151;28;20122;-86
2021/05/30 01:38:04;;;;;;;6.40;4.63;;;10.40;79.60;;;;;;2075336;28;20565;-85
2021/05/30 01:39:05;;;;;;;8.10;4.80;;;10.30;79.60;;;;;;2073576;28;20037;-85
2021/05/30 01:40:07;;;;;;;6.65;5.20;;;10.30;79.60;;;;;;2078214;28;20029;-85
2021/05/30 01:41:07;;;;;;;7.45;5.35;;;10.30;79.60;;;;;;2071750;28;20480;-84
2021/05/30 01:42:08;;;;;;;6.95;4.95;;;10.30;79.60;;;;;;2072010;28;20121;-85
2021/05/30 01:43:09;;;;;;;7.22;5.07;;;10.30;79.60;;;;;;2069397;28;20120;-85
2021/05/30 01:44:10;;;;;;;6.93;4.85;;;10.30;79.60;;;;;;2072281;28;20467;-85
2021/05/30 01:45:11;;;;;;;8.77;5.13;;;10.30;79.60;;;;;;2082322;28;20034;-85
2021/05/30 01:46:12;;;;;;;7.15;5.25;;;10.30;79.60;;;;;;2061978;28;20035;-84
2021/05/30 01:47:13;;;;;;;8.30;5.55;;;10.30;79.60;;;;;;2054167;28;20114;-86
2021/05/30 01:48:13;;;;;;;6.28;4.88;;;10.30;79.70;;;;;;2061965;28;20064;-85
2021/05/30 01:49:14;;;;;;;7.57;5.53;;;10.20;79.70;;;;;;2068153;28;20034;-85
2021/05/30 01:50:20;;;;;;;7.65;5.32;;;10.20;79.80;;;;;;2066273;28;20584;-85
2021/05/30 01:51:20;;;;;;;7.88;5.25;;;10.20;79.90;;;;;;2067375;28;20069;-85
2021/05/30 01:52:21;;;;;;;9.75;5.53;;;10.10;79.80;;;;;;2077722;28;20443;-86
2021/05/30 01:54:51;;;;;;;8.48;5.15;;;10.10;79.90;;;;;;2057383;28;20041;-84
2021/05/30 01:56:55;;;;;;;7.90;5.28;;;10.10;79.90;;;;;;2075672;28;20507;-84
2021/05/30 01:57:15;;;;;;;7.97;5.15;;;10.10;79.90;;;;;;2070468;28;20037;-85
2021/05/30 01:58:16;;;;;;;7.57;5.13;;;10.10;79.90;;;;;;2073448;28;20032;-85
2021/05/30 01:59:18;;;;;;;8.05;5.55;;;10.10;79.90;;;;;;2063734;28;20034;-85
2021/05/30 02:00:20;;;;;;;9.85;6.00;;;10.10;79.90;;;;;;2065455;28;20564;-85
2021/05/30 02:01:21;;;;;;;7.85;5.85;;;10.10;80.00;;;;;;2058614;28;20051;-85
2021/05/30 02:02:24;;;;;;;7.78;5.55;;;10.10;80.00;;;;;;2060189;28;20454;-85
2021/05/30 02:03:27;;;;;;;8.00;5.63;;;10.00;80.00;;;;;;2062732;28;20500;-85
2021/05/30 02:04:38;;;;;;;7.07;5.32;;;10.10;80.10;;;;;;2069799;28;20033;-85
2021/05/30 02:05:45;;;;;;;7.05;5.45;;;10.00;80.00;;;;;;2070374;28;20388;-85
2021/05/30 02:06:47;;;;;;;7.57;5.60;;;10.00;80.10;;;;;;2072005;28;20053;-84
2021/05/30 02:07:49;;;;;;;7.28;5.30;;;10.00;80.10;;;;;;2063782;28;20506;-85
2021/05/30 02:08:51;;;;;;;7.22;5.40;;;9.90;80.10;;;;;;2065628;28;20049;-85
2021/05/30 02:09:53;;;;;;;7.10;5.03;;;9.90;80.20;;;;;;2078686;28;20026;-84
2021/05/30 02:10:54;;;;;;;7.75;5.30;;;10.00;80.20;;;;;;2079825;28;20570;-84
2021/05/30 02:11:54;;;;;;;8.13;5.00;;;9.90;80.10;;;;;;2062837;28;20030;-85
2021/05/30 02:12:56;;;;;;;8.35;5.28;;;10.00;80.20;;;;;;2065356;28;20042;-85
2021/05/30 02:14:03;;;;;;;7.18;5.47;;;9.90;80.20;;;;;;2071806;28;20045;-84
2021/05/30 02:15:06;;;;;;;8.27;5.05;;;10.00;80.30;;;;;;2073762;28;20053;-85
2021/05/30 02:16:07;;;;;;;8.13;5.45;;;10.00;80.20;;;;;;2078362;28;20495;-84
2021/05/30 02:17:07;;;;;;;7.93;5.28;;;10.00;80.20;;;;;;2067463;28;20026;-85
2021/05/30 02:18:08;;;;;;;7.07;5.13;;;10.00;80.10;;;;;;2062131;28;20063;-85
2021/05/30 02:19:09;;;;;;;9.10;5.57;;;10.00;80.10;;;;;;2055318;28;20039;-84
2021/05/30 02:20:11;;;;;;;8.73;5.28;;;10.00;80.20;;;;;;2061395;28;20062;-84
2021/05/30 02:21:11;;;;;;;8.30;5.70;;;10.00;80.20;;;;;;2078410;28;20022;-84
2021/05/30 02:22:12;;;;;;;8.45;5.72;;;10.00;80.20;;;;;;2071024;28;20029;-84
2021/05/30 02:23:14;;;;;;;7.20;5.25;;;10.00;80.20;;;;;;2065336;28;20125;-84
2021/05/30 02:24:16;;;;;;;8.20;5.43;;;10.00;80.20;;;;;;2071166;28;20030;-84
2021/05/30 02:25:17;;;;;;;7.72;6.00;;;10.00;80.20;;;;;;2068142;28;20026;-84
2021/05/30 02:26:18;;;;;;;7.18;5.55;;;10.00;80.20;;;;;;2064703;28;20026;-84
2021/05/30 02:27:19;;;;;;;7.97;5.45;;;10.00;80.20;;;;;;2053855;28;20420;-84
2021/05/30 02:28:19;;;;;;;8.43;5.50;;;10.00;80.20;;;;;;2055007;28;20520;-84
2021/05/30 02:29:33;;;;;;;7.28;5.40;;;10.00;80.30;;;;;;2068076;28;20053;-84
2021/05/30 02:30:34;;;;;;;7.28;5.53;;;9.90;80.20;;;;;;2070111;28;20049;-84
2021/05/30 02:31:35;;;;;;;7.43;5.32;;;10.00;80.30;;;;;;2071064;28;20389;-83
2021/05/30 02:32:36;;;;;;;7.07;5.00;;;10.00;80.30;;;;;;2065498;28;20492;-84
2021/05/30 02:33:36;;;;;;;7.18;4.93;;;10.00;80.30;;;;;;2064949;28;20023;-84
2021/05/30 02:34:40;;;;;;;7.93;5.22;;;10.00;80.20;;;;;;2064203;28;20030;-84
2021/05/30 02:35:41;;;;;;;7.35;5.40;;;10.00;80.20;;;;;;2072459;28;20504;-84
2021/05/30 02:36:42;;;;;;;7.47;5.20;;;10.00;80.20;;;;;;2066562;28;20057;-84
2021/05/30 02:37:43;;;;;;;7.95;5.82;;;10.00;80.20;;;;;;2048867;28;20027;-85
2021/05/30 02:38:43;;;;;;;8.23;5.75;;;10.00;80.20;;;;;;2055523;28;20066;-84
2021/05/30 02:39:45;;;;;;;7.30;5.68;;;9.90;80.20;;;;;;2055128;28;20379;-85
2021/05/30 02:40:46;;;;;;;7.28;5.65;;;9.90;80.30;;;;;;2069231;28;20467;-84
2021/05/30 02:41:46;;;;;;;8.20;5.28;;;9.90;80.30;;;;;;2064311;28;20062;-84
2021/05/30 02:42:47;;;;;;;8.82;5.68;;;9.90;80.30;;;;;;2059436;28;20034;-84
2021/05/30 02:43:48;;;;;;;9.23;5.50;;;9.90;80.30;;;;;;2063086;28;20046;-84
2021/05/30 02:44:48;;;;;;;8.65;6.03;;;9.90;80.40;;;;;;2069241;28;20518;-84
2021/05/30 02:45:49;;;;;;;8.15;5.70;;;9.80;80.30;;;;;;2066005;28;20062;-84
2021/05/30 02:46:50;;;;;;;7.45;5.28;;;9.80;80.30;;;;;;2050603;28;20039;-84
2021/05/30 02:47:51;;;;;;;9.70;6.65;;;9.80;80.40;;;;;;2051498;28;20485;-85
2021/05/30 02:48:52;;;;;;;8.70;6.28;;;9.80;80.50;;;;;;2067324;28;20038;-84
2021/05/30 02:49:52;;;;;;;9.55;6.32;;;9.80;81.20;;;;;;2077626;28;20520;-84
2021/05/30 02:51:00;;;;;;;8.27;5.80;;;9.80;80.60;;;;;;2061502;28;20049;-84
2021/05/30 02:52:02;;;;;;;8.52;5.80;;;9.80;80.60;;;;;;2072417;28;20373;-84
2021/05/30 02:53:03;;;;;;;8.15;6.00;;;9.70;80.50;;;;;;2068691;28;20037;-84
2021/05/30 02:54:04;;;;;;;7.43;5.38;;;9.70;80.50;;;;;;2058160;28;20525;-84
2021/05/30 02:55:05;;;;;;;9.13;5.78;;;9.70;80.50;;;;;;2060286;28;20485;-84
2021/05/30 02:56:05;;;;;;;8.93;6.18;;;9.80;80.60;;;;;;2059286;28;20389;-85
2021/05/30 02:57:07;;;;;;;7.72;5.50;;;9.70;80.50;;;;;;2060513;28;20026;-84
2021/05/30 02:58:07;;;;;;;8.68;6.00;;;9.80;80.60;;;;;;2068790;28;20026;-84
2021/05/30 02:59:08;;;;;;;7.93;5.80;;;9.70;80.50;;;;;;2063943;28;20027;-84
2021/05/30 03:00:09;;;;;;;8.48;5.90;;;9.70;80.60;;;;;;2055573;28;20137;-84
2021/05/30 03:01:10;;;;;;;8.55;5.95;;;9.80;80.70;;;;;;2055343;28;20067;-84
2021/05/30 03:02:11;;;;;;;9.20;6.38;;;9.70;80.60;;;;;;2058030;28;20363;-84
2021/05/30 03:03:12;;;;;;;8.25;6.00;;;9.70;80.60;;;;;;2061813;28;20026;-84
2021/05/30 03:04:13;;;;;;;8.30;6.22;;;9.70;80.60;;;;;;2052462;28;20019;-83
2021/05/30 03:05:13;;;;;;;8.38;6.05;;;9.70;80.60;;;;;;2057094;28;20516;-84
2021/05/30 03:06:14;;;;;;;8.18;5.60;;;9.70;80.60;;;;;;2061965;28;20050;-84
2021/05/30 03:07:15;;;;;;;9.30;5.90;;;9.70;80.70;;;;;;2068177;28;20026;-84
2021/05/30 03:08:15;;;;;;;8.23;6.00;;;9.70;80.60;;;;;;2077873;28;20660;-84
2021/05/30 03:09:16;;;;;;;7.57;5.82;;;9.70;80.60;;;;;;2073148;28;20021;-84
2021/05/30 03:10:17;;;;;;;7.35;5.47;;;9.70;80.60;;;;;;2076034;28;20033;-84
2021/05/30 03:11:18;;;;;;;7.50;5.50;;;9.70;80.60;;;;;;2071572;28;20499;-84
2021/05/30 03:12:19;;;;;;;8.50;5.63;;;9.70;80.70;;;;;;2072734;28;20503;-85
2021/05/30 03:13:20;;;;;;;8.48;5.88;;;9.60;80.70;;;;;;2077635;28;20018;-84
2021/05/30 03:14:20;;;;;;;8.70;6.43;;;9.70;80.70;;;;;;2081467;28;20471;-85
2021/05/30 03:15:21;;;;;;;8.50;6.22;;;9.60;80.70;;;;;;2080727;28;20033;-84
2021/05/30 03:16:22;;;;;;;8.23;5.53;;;9.60;80.70;;;;;;2072359;28;20120;-84
2021/05/30 03:17:22;;;;;;;8.80;6.10;;;9.60;80.80;;;;;;2064622;28;20113;-84
2021/05/30 03:18:23;;;;;;;8.10;5.43;;;9.60;80.80;;;;;;2064958;28;20045;-84
2021/05/30 03:19:24;;;;;;;7.68;5.75;;;9.60;80.80;;;;;;2072440;28;20030;-85
2021/05/30 03:20:25;;;;;;;8.77;5.72;;;9.60;80.80;;;;;;2061131;28;20030;-84
2021/05/30 03:21:25;;;;;;;8.07;5.38;;;9.60;80.80;;;;;;2061280;28;20022;-84
2021/05/30 03:22:26;;;;;;;8.65;5.82;;;9.60;80.80;;;;;;2065081;28;20038;-84
2021/05/30 03:23:26;;;;;;;7.88;5.80;;;9.60;80.90;;;;;;2056956;28;20030;-83
2021/05/30 03:24:27;;;;;;;7.25;5.40;;;9.60;80.80;;;;;;2055174;28;20074;-84
2021/05/30 03:25:28;;;;;;;9.10;5.88;;;9.60;80.90;;;;;;2056697;28;20023;-85
2021/05/30 03:26:28;;;;;;;9.23;6.22;;;9.60;80.90;;;;;;2056418;28;20517;-84
2021/05/30 03:27:29;;;;;;;7.88;5.45;;;9.60;80.90;;;;;;2080613;28;20120;-84
2021/05/30 03:28:30;;;;;;;7.05;5.07;;;9.60;80.90;;;;;;2070394;28;20558;-85
2021/05/30 03:29:30;;;;;;;8.00;5.65;;;9.60;80.90;;;;;;2062532;28;20054;-84
2021/05/30 03:30:32;;;;;;;8.25;5.40;;;9.60;80.90;;;;;;2057017;28;20041;-85
2021/05/30 03:31:32;;;;;;;9.52;5.90;;;9.60;80.90;;;;;;2069081;28;20038;-84
2021/05/30 03:32:33;;;;;;;10.25;5.72;;;9.60;80.90;;;;;;2077552;28;20026;-84
2021/05/30 03:33:34;;;;;;;9.13;5.80;;;9.60;80.90;;;;;;2087282;28;20012;-84
2021/05/30 03:34:35;;;;;;;8.48;5.90;;;9.60;80.90;;;;;;2087966;28;20045;-83
2021/05/30 03:35:36;;;;;;;8.52;6.20;;;9.50;80.90;;;;;;2085466;28;20034;-84
2021/05/30 03:36:37;;;;;;;7.93;5.53;;;9.60;81.00;;;;;;2085508;28;20061;-83
2021/05/30 03:37:37;;;;;;;9.77;6.13;;;9.60;81.00;;;;;;2074904;28;20066;-83
2021/05/30 03:38:39;;;;;;;11.00;6.45;;;9.50;81.00;;;;;;2067909;28;20030;-84
2021/05/30 03:39:42;;;;;;;7.35;5.93;;;9.50;81.10;;;;;;2069947;28;20063;-84
2021/05/30 03:41:53;;;;;;;7.43;5.30;;;9.50;81.20;;;;;;2071454;28;20129;-84
2021/05/30 03:42:54;;;;;;;8.98;5.82;;;9.50;81.20;;;;;;2076988;28;20034;-83
2021/05/30 03:43:54;;;;;;;8.13;5.57;;;9.40;81.20;;;;;;2071399;28;20097;-83
2021/05/30 03:44:58;;;;;;;7.85;6.03;;;9.50;81.20;;;;;;2079537;28;20022;-83
2021/05/30 03:46:00;;;;;;;8.23;5.82;;;9.50;81.30;;;;;;2081196;28;20026;-83
2021/05/30 03:47:00;;;;;;;9.25;5.90;;;9.50;81.30;;;;;;2072872;28;20117;-83
2021/05/30 03:48:02;;;;;;;7.85;5.50;;;9.50;81.30;;;;;;2081379;28;20026;-85
2021/05/30 03:49:04;;;;;;;8.68;5.63;;;9.40;81.20;;;;;;2074006;28;20065;-84
2021/05/30 03:50:05;;;;;;;7.93;6.00;;;9.50;81.30;;;;;;2065545;28;20026;-84
2021/05/30 03:51:06;;;;;;;8.07;5.45;;;9.50;81.30;;;;;;2065133;28;20046;-84
2021/05/30 03:52:08;;;;;;;7.30;5.35;;;9.50;81.30;;;;;;2072479;28;20455;-84
2021/05/30 03:53:09;;;;;;;9.48;6.25;;;9.50;81.30;;;;;;2068073;28;21492;-83
2021/05/30 03:54:09;;;;;;;9.05;5.50;;;9.50;81.30;;;;;;2073148;28;20029;-84
2021/05/30 03:55:11;;;;;;;7.85;5.05;;;9.50;81.30;;;;;;2069665;28;20030;-84
2021/05/30 03:56:13;;;;;;;9.18;6.05;;;9.50;81.30;;;;;;2056250;28;20356;-84
2021/05/30 03:57:15;;;;;;;10.23;6.78;;;9.50;81.30;;;;;;2061830;28;20014;-83
2021/05/30 03:58:17;;;;;;;7.75;5.70;;;9.50;81.30;;;;;;2064865;28;20579;-83
2021/05/30 03:59:17;;;;;;;8.65;5.85;;;9.50;81.30;;;;;;2062040;28;20030;-84
2021/05/30 04:00:19;;;;;;;9.02;6.32;;;9.50;81.30;;;;;;2068382;28;20038;-83
2021/05/30 04:01:19;;;;;;;8.23;6.15;;;9.50;82.00;;;;;;2073126;28;20030;-83
2021/05/30 04:02:20;;;;;;;9.75;6.40;;;9.50;81.40;;;;;;2063690;28;20088;-83
2021/05/30 04:03:21;;;;;;;9.40;5.70;;;9.50;81.40;;;;;;2065112;28;20109;-84
2021/05/30 04:04:21;;;;;;;8.73;6.47;;;9.50;81.30;;;;;;2081998;28;20021;-84
2021/05/30 04:05:22;;;;;;;9.05;5.85;;;9.50;81.30;;;;;;2078361;28;20026;-84
2021/05/30 04:06:23;;;;;;;10.88;6.38;;;9.60;81.40;;;;;;2079604;28;20037;-83
2021/05/30 04:07:23;;;;;;;7.45;5.82;;;9.60;81.30;;;;;;2074318;28;20048;-83
2021/05/30 04:08:24;;;;;;;7.35;5.60;;;9.60;81.30;;;;;;2079386;28;20025;-82
2021/05/30 04:09:25;;;;;;;7.90;5.70;;;9.60;81.30;;;;;;2073115;28;20090;-84
2021/05/30 04:10:26;;;;;;;8.00;5.68;;;9.60;81.20;;;;;;2064311;28;20048;-84
2021/05/30 04:11:26;;;;;;;9.15;6.22;;;9.70;81.20;;;;;;2066731;28;20030;-84
2021/05/30 04:12:27;;;;;;;8.40;5.90;;;9.70;81.10;;;;;;2073258;28;20028;-83
2021/05/30 04:13:28;;;;;;;7.47;5.70;;;9.70;81.00;;;;;;2069925;28;20496;-85
2021/05/30 04:14:28;;;;;;;7.78;6.00;;;9.70;81.00;;;;;;2077265;28;20029;-85
2021/05/30 04:15:29;;;;;;;8.13;5.88;;;9.70;81.00;;;;;;2070620;28;20025;-85
2021/05/30 04:16:30;;;;;;;7.88;5.68;;;9.70;80.90;;;;;;2072804;28;20030;-85
2021/05/30 04:17:30;;;;;;;8.88;6.00;;;9.70;80.90;;;;;;2078282;28;20137;-85
2021/05/30 04:18:31;;;;;;;8.70;5.70;;;9.80;81.00;;;;;;2079887;28;20022;-85
2021/05/30 04:19:32;;;;;;;8.40;5.32;;;9.80;81.00;;;;;;2080824;28;20464;-85
2021/05/30 04:20:32;;;;;;;7.47;5.55;;;9.80;80.90;;;;;;2075348;28;20045;-84
2021/05/30 04:21:33;;;;;;;10.48;6.43;;;9.80;80.80;;;;;;2062598;28;20484;-85
2021/05/30 04:22:35;;;;;;;7.78;6.15;;;9.80;80.80;;;;;;2045592;28;20118;-84
2021/05/30 04:23:36;;;;;;;9.27;6.30;;;9.80;80.80;;;;;;2056601;28;20034;-85
2021/05/30 04:24:36;;;;;;;9.75;6.63;;;9.80;80.80;;;;;;2064000;28;20081;-84
2021/05/30 04:25:37;;;;;;;9.50;6.40;;;9.80;80.80;;;;;;2052944;28;20154;-84
2021/05/30 04:26:38;;;;;;;9.57;6.57;;;9.80;80.90;;;;;;2071947;28;20034;-84
2021/05/30 04:27:38;;;;;;;9.82;6.80;;;9.80;80.90;;;;;;2071959;28;20053;-84
2021/05/30 04:28:39;;;;;;;11.38;6.55;;;9.80;80.90;;;;;;2065662;28;20129;-85
2021/05/30 04:29:40;;;;;;;10.02;7.07;;;9.80;81.00;;;;;;2069892;28;20041;-84
2021/05/30 04:30:40;;;;;;;8.48;6.28;;;9.70;81.00;;;;;;2067628;28;20026;-85
2021/05/30 04:31:41;;;;;;;8.90;6.00;;;9.70;81.10;;;;;;2056732;28;20033;-85
2021/05/30 04:32:43;;;;;;;9.18;6.40;;;9.70;81.10;;;;;;2058962;28;20026;-84
2021/05/30 04:33:43;;;;;;;9.23;6.40;;;9.70;81.10;;;;;;2074578;28;20029;-84
2021/05/30 04:34:44;;;;;;;8.48;6.25;;;9.80;81.10;;;;;;2060118;28;20572;-85
2021/05/30 04:35:45;;;;;;;8.50;6.10;;;9.80;81.10;;;;;;2054749;28;20042;-85
2021/05/30 04:36:45;;;;;;;8.90;6.28;;;9.80;81.10;;;;;;2056268;28;20034;-85
2021/05/30 04:37:46;;;;;;;9.73;6.70;;;9.80;81.10;;;;;;2056854;28;20155;-85
2021/05/30 04:38:46;;;;;;;9.35;6.43;;;9.80;81.10;;;;;;2063762;28;20132;-85
2021/05/30 04:39:47;;;;;;;9.98;6.43;;;9.80;81.10;;;;;;2061697;28;20041;-85
2021/05/30 04:40:49;;;;;;;9.10;6.43;;;9.80;81.10;;;;;;2060503;28;20061;-85
2021/05/30 04:41:50;;;;;;;9.75;6.18;;;9.80;81.10;;;;;;2075496;28;20030;-84
2021/05/30 04:42:52;;;;;;;9.35;6.35;;;9.80;81.10;;;;;;2070893;28;20033;-84
2021/05/30 04:43:52;;;;;;;8.80;6.05;;;9.80;81.10;;;;;;2071670;28;20080;-84
2021/05/30 04:44:53;;;;;;;9.23;6.25;;;9.90;81.10;;;;;;2070423;28;20022;-84
2021/05/30 04:45:54;;;;;;;9.18;6.63;;;9.90;81.10;;;;;;2047216;28;20043;-84
2021/05/30 04:46:54;;;;;;;8.48;6.13;;;9.90;81.10;;;;;;2049200;28;20042;-84
2021/05/30 04:47:55;;;;;;;8.75;6.53;;;9.90;81.10;;;;;;2055223;28;20031;-84
2021/05/30 04:48:55;;;;;;;9.23;6.40;;;9.90;81.10;;;;;;2058230;28;20053;-84
2021/05/30 04:49:56;;;;;;;9.43;6.07;;;9.90;81.10;;;;;;2072631;28;20030;-84
2021/05/30 04:51:06;;;;;;;9.07;6.65;;;10.00;81.10;;;;;;2054362;28;20050;-84
2021/05/30 04:52:08;;;;;;;8.70;6.10;;;10.00;81.10;;;;;;2070874;28;20017;-83
2021/05/30 04:53:09;;;;;;;8.55;6.20;;;10.00;81.00;;;;;;2078799;28;20033;-83
2021/05/30 04:54:10;;;;;;;9.73;6.22;;;10.10;80.90;;;;;;2068075;28;20030;-84
2021/05/30 04:55:11;;;;;;;9.00;5.93;;;10.10;80.80;;;;;;2062587;28;20042;-84
2021/05/30 04:56:21;;;;;;;9.48;6.50;;;10.20;80.80;;;;;;2049661;28;20027;-84
2021/05/30 04:57:23;;;;;;;7.43;5.68;;;10.20;80.70;;;;;;2067590;28;20034;-84
2021/05/30 04:58:23;;;;;;;10.50;6.50;;;10.20;80.60;;;;;;2065552;28;20501;-84
2021/05/30 04:59:24;;;;;;;9.65;6.55;;;10.30;80.50;;;;;;2065157;28;20045;-84
2021/05/30 05:00:25;;;;;;;10.10;6.57;;;10.40;81.00;;;;;;2068185;28;20053;-84
2021/05/30 05:01:25;;;;;;;8.57;6.47;;;10.50;80.30;;;;;;2070207;28;20045;-85
2021/05/30 05:02:27;;;;;;;9.35;6.32;;;10.60;80.20;;;;;;2067522;28;22150;-84
2021/05/30 05:03:27;;;;;;;9.73;6.47;;;10.60;80.00;;;;;;2059327;28;20041;-84
2021/05/30 05:04:28;;;;;;;9.52;6.55;;;10.70;79.90;;;;;;2046224;28;20449;-84
2021/05/30 05:05:29;;;;;;;10.00;6.78;;;10.70;79.80;;;;;;2053143;28;20093;-83
2021/05/30 05:06:29;;;;;;;9.43;6.32;;;10.80;79.60;;;;;;2069656;28;20062;-84
2021/05/30 05:07:30;;;;;;;8.40;6.18;;;10.90;79.50;;;;;;2071454;28;20057;-84
2021/05/30 05:08:31;;;;;;;8.95;6.43;;;10.90;79.40;;;;;;2067577;28;20475;-85
2021/05/30 05:09:32;;;;;;;9.07;6.78;;;11.00;79.30;;;;;;2064568;28;20022;-85
2021/05/30 05:10:33;;;;;;;8.95;6.38;;;11.10;79.20;;;;;;2064103;28;20097;-84
2021/05/30 05:11:33;;;;;;;9.68;6.82;;;11.10;79.70;;;;;;2057925;28;20034;-85
2021/05/30 05:12:35;;;;;;;8.15;6.30;;;11.20;78.90;;;;;;2056162;28;20022;-85
2021/05/30 05:13:36;;;;;;;8.68;6.38;;;11.30;78.70;;;;;;2069449;28;20100;-85
2021/05/30 05:14:37;;;;;;;9.38;6.32;;;11.40;79.30;;;;;;2063675;28;20031;-84
2021/05/30 05:15:38;;;;;;;7.10;5.70;;;11.40;78.50;;;;;;2052047;28;20026;-84
2021/05/30 05:16:38;;;;;;;9.05;6.25;;;11.50;78.40;;;;;;2075918;28;20116;-84
2021/05/30 05:17:39;;;;;;;9.88;6.53;;;11.60;78.50;;;;;;2072225;28;20037;-85
2021/05/30 05:18:40;;;;;;;9.15;6.32;;;11.60;78.00;;;;;;2072443;28;20527;-84
2021/05/30 05:19:41;;;;;;;8.27;6.00;;;11.70;78.50;;;;;;2074716;28;20029;-83
2021/05/30 05:20:42;;;;;;;8.55;6.20;;;11.80;77.80;;;;;;2075328;28;20030;-84
2021/05/30 05:21:43;;;;;;;7.95;5.43;;;11.90;77.70;;;;;;2062530;28;20124;-84
2021/05/30 05:22:44;;;;;;;8.40;6.13;;;12.00;77.60;;;;;;2064187;28;20028;-84
2021/05/30 05:23:44;;;;;;;8.15;6.03;;;12.10;77.50;;;;;;2067758;28;20045;-84